Time;durP1;ratioP1;P1;durP2;ratioP2;P2;SDS_P1;SDS_P2;PMS_P1;PMS_P2;Temp;Humidity;BMP_temperature;BMP_pressure;BME280_temperature;BME280_humidity;BME280_pressure;Samples;Min_cycle;Max_cycle;Signal;HPM_P1;HPM_P2
2023/08/26 00:02:19;;;;;;;43.28;28.98;;;19.00;99.90;;;;;;5075126;28;20086;-78
2023/08/26 00:04:46;;;;;;;38.58;27.17;;;19.00;99.90;;;;;;5056631;28;21904;-78
2023/08/26 00:07:15;;;;;;;40.67;28.08;;;19.00;99.90;;;;;;5060140;28;20043;-78
2023/08/26 00:09:42;;;;;;;41.05;29.48;;;19.00;99.90;;;;;;5042155;28;20056;-78
2023/08/26 00:12:09;;;;;;;40.30;30.08;;;19.00;99.90;;;;;;5075450;28;20037;-78
2023/08/26 00:14:36;;;;;;;42.63;31.00;;;19.00;99.90;;;;;;5041030;28;20052;-78
2023/08/26 00:17:04;;;;;;;46.83;31.08;;;19.00;99.90;;;;;;5053612;28;20044;-81
2023/08/26 00:19:31;;;;;;;42.88;30.45;;;18.90;99.90;;;;;;5057352;28;20040;-79
2023/08/26 00:22:00;;;;;;;49.22;32.97;;;18.90;99.90;;;;;;5055395;28;20459;-78
2023/08/26 00:24:27;;;;;;;47.15;30.95;;;18.90;99.90;;;;;;5043468;28;20047;-80
2023/08/26 00:26:53;;;;;;;44.85;32.58;;;18.80;99.90;;;;;;5055295;28;20053;-80
2023/08/26 00:29:20;;;;;;;48.80;33.97;;;18.80;99.90;;;;;;5045053;28;20044;-79
2023/08/26 00:31:47;;;;;;;50.72;31.67;;;18.70;99.90;;;;;;5072534;28;20047;-80
2023/08/26 00:34:14;;;;;;;49.90;33.83;;;18.70;99.90;;;;;;5059109;28;20096;-80
2023/08/26 00:36:41;;;;;;;56.88;33.50;;;18.70;99.90;;;;;;5058643;28;20048;-80
2023/08/26 00:39:08;;;;;;;50.67;33.83;;;18.60;99.90;;;;;;5082528;28;20055;-80
2023/08/26 00:41:35;;;;;;;56.13;33.97;;;18.60;99.90;;;;;;5061119;28;20066;-80
2023/08/26 00:44:02;;;;;;;51.33;33.33;;;18.60;99.90;;;;;;5061907;28;20063;-80
2023/08/26 00:46:29;;;;;;;53.20;35.15;;;18.60;99.90;;;;;;5063522;28;20063;-79
2023/08/26 00:48:56;;;;;;;57.45;34.72;;;18.50;99.90;;;;;;5037428;28;20064;-80
2023/08/26 00:51:24;;;;;;;52.38;34.53;;;18.50;99.90;;;;;;5069127;28;20052;-81
2023/08/26 00:53:51;;;;;;;59.97;36.15;;;18.50;99.90;;;;;;5049297;28;20055;-80
2023/08/26 00:56:18;;;;;;;56.15;34.65;;;18.40;99.90;;;;;;5075735;28;20036;-80
2023/08/26 00:58:44;;;;;;;61.88;35.42;;;18.40;99.90;;;;;;5037356;28;20048;-80
2023/08/26 01:01:13;;;;;;;62.10;35.47;;;18.40;99.90;;;;;;5055735;28;20135;-80
2023/08/26 01:03:41;;;;;;;64.13;35.35;;;18.40;99.90;;;;;;5065175;28;20053;-81
2023/08/26 01:06:07;;;;;;;56.00;34.95;;;18.40;99.90;;;;;;5062627;28;20043;-80
2023/08/26 01:08:36;;;;;;;59.70;36.50;;;18.50;99.90;;;;;;5043287;28;20044;-79
2023/08/26 01:11:11;;;;;;;60.00;35.88;;;18.50;99.90;;;;;;5038122;28;20052;-80
2023/08/26 01:13:52;;;;;;;56.17;35.35;;;18.50;99.90;;;;;;5051126;28;20044;-79
2023/08/26 01:16:22;;;;;;;62.35;35.65;;;18.50;99.90;;;;;;5050913;28;20051;-79
2023/08/26 01:18:50;;;;;;;68.72;38.03;;;18.40;99.90;;;;;;5052893;28;20048;-80
2023/08/26 01:21:19;;;;;;;63.13;37.28;;;18.40;99.90;;;;;;5079346;28;20052;-79
2023/08/26 01:23:47;;;;;;;64.53;37.28;;;18.30;99.90;;;;;;5054870;28;20071;-80
2023/08/26 01:26:15;;;;;;;68.43;39.25;;;18.30;99.90;;;;;;5054728;28;20044;-80
2023/08/26 01:28:42;;;;;;;72.50;40.35;;;18.20;99.90;;;;;;5029396;28;20056;-80
2023/08/26 01:31:12;;;;;;;79.63;40.13;;;18.10;99.90;;;;;;5057009;28;20055;-79
2023/08/26 01:33:50;;;;;;;79.47;42.95;;;18.00;99.90;;;;;;5035785;28;20127;-79
2023/08/26 01:36:22;;;;;;;80.47;43.13;;;18.00;99.90;;;;;;5060060;28;20143;-79
2023/08/26 01:38:50;;;;;;;81.05;42.33;;;18.00;99.90;;;;;;5039428;28;20047;-79
2023/08/26 01:41:19;;;;;;;76.35;39.95;;;18.00;99.90;;;;;;5033435;28;20044;-79
2023/08/26 01:43:47;;;;;;;77.57;40.50;;;18.00;99.90;;;;;;5050305;28;20049;-79
2023/08/26 01:46:17;;;;;;;64.20;37.47;;;18.00;99.90;;;;;;5058331;28;20047;-79
2023/08/26 01:48:44;;;;;;;67.53;37.55;;;18.00;99.90;;;;;;5042166;28;20041;-79
2023/08/26 01:51:13;;;;;;;65.80;35.88;;;18.00;99.90;;;;;;5064341;28;20047;-80
2023/08/26 01:53:40;;;;;;;60.28;35.15;;;18.10;99.90;;;;;;5057102;28;20127;-80
2023/08/26 01:56:06;;;;;;;57.70;35.15;;;18.00;99.90;;;;;;5041377;28;20045;-79
2023/08/26 01:58:33;;;;;;;56.25;35.60;;;18.10;99.90;;;;;;5063867;28;20356;-79
2023/08/26 02:01:06;;;;;;;67.07;35.40;;;18.10;99.90;;;;;;5055932;28;21471;-79
2023/08/26 02:03:33;;;;;;;57.58;35.03;;;18.00;99.90;;;;;;5060563;28;20112;-79
2023/08/26 02:05:59;;;;;;;63.05;37.00;;;18.00;99.90;;;;;;5040916;28;20043;-79
2023/08/26 02:08:26;;;;;;;63.90;35.80;;;17.90;99.90;;;;;;5058967;28;20071;-80
2023/08/26 02:10:55;;;;;;;61.72;36.40;;;17.90;99.90;;;;;;5051618;28;20082;-80
2023/08/26 02:13:24;;;;;;;62.97;35.72;;;17.90;99.90;;;;;;5041860;28;20040;-79
2023/08/26 02:15:51;;;;;;;54.88;35.72;;;17.80;99.90;;;;;;5027758;28;20048;-79
2023/08/26 02:18:18;;;;;;;60.67;36.13;;;17.70;99.90;;;;;;5039889;28;20053;-79
2023/08/26 02:20:45;;;;;;;57.90;35.85;;;17.70;99.90;;;;;;5066351;28;20040;-79
2023/08/26 02:23:12;;;;;;;67.60;38.17;;;17.70;99.90;;;;;;5060582;28;20138;-80
2023/08/26 02:25:39;;;;;;;61.75;37.08;;;17.70;99.90;;;;;;5060348;28;20024;-79
2023/08/26 02:28:06;;;;;;;65.30;37.75;;;17.70;99.90;;;;;;5036567;28;20111;-78
2023/08/26 02:30:34;;;;;;;64.63;40.55;;;17.70;99.90;;;;;;5069896;28;20032;-80
2023/08/26 02:33:06;;;;;;;72.32;39.80;;;17.60;99.90;;;;;;5050329;28;20040;-79
2023/08/26 02:35:34;;;;;;;65.25;39.83;;;17.70;99.90;;;;;;5080467;28;20048;-79
2023/08/26 02:38:01;;;;;;;67.32;39.10;;;17.60;99.90;;;;;;5035905;28;20052;-79
2023/08/26 02:40:28;;;;;;;66.72;38.50;;;17.60;99.90;;;;;;5056501;28;20044;-79
2023/08/26 02:42:55;;;;;;;68.57;38.90;;;17.50;99.90;;;;;;5037964;28;20127;-79
2023/08/26 02:45:23;;;;;;;67.22;40.13;;;17.50;99.90;;;;;;5056803;28;20522;-79
2023/08/26 02:47:50;;;;;;;73.45;42.13;;;17.50;99.90;;;;;;5052929;28;20040;-79
2023/08/26 02:50:17;;;;;;;69.53;40.08;;;17.50;99.90;;;;;;5040833;28;20044;-80
2023/08/26 02:52:44;;;;;;;70.57;40.95;;;17.50;99.90;;;;;;5055341;28;20754;-80
2023/08/26 02:55:10;;;;;;;76.38;42.90;;;17.50;99.90;;;;;;5047418;28;20553;-79
2023/08/26 02:57:38;;;;;;;76.53;45.10;;;17.50;99.90;;;;;;5065244;28;20075;-79
2023/08/26 03:00:06;;;;;;;74.57;44.58;;;17.50;99.90;;;;;;5059398;28;20074;-77
2023/08/26 03:02:33;;;;;;;75.38;45.03;;;17.40;99.90;;;;;;5044971;28;20120;-79
2023/08/26 03:05:00;;;;;;;74.50;43.15;;;17.30;99.90;;;;;;5041483;28;20046;-80
2023/08/26 03:07:27;;;;;;;76.97;43.60;;;17.20;99.90;;;;;;5040949;28;20062;-78
2023/08/26 03:09:55;;;;;;;76.15;43.70;;;17.20;99.90;;;;;;5050174;28;20064;-79
2023/08/26 03:12:22;;;;;;;67.22;44.13;;;17.10;99.90;;;;;;5081701;28;20040;-79
2023/08/26 03:14:52;;;;;;;72.53;42.67;;;17.00;99.90;;;;;;5059061;28;20064;-79
2023/08/26 03:17:20;;;;;;;81.10;44.53;;;17.00;99.90;;;;;;5040972;28;20044;-79
2023/08/26 03:19:46;;;;;;;76.82;44.75;;;17.00;99.90;;;;;;5054538;28;20572;-79
2023/08/26 03:22:14;;;;;;;80.88;49.42;;;16.90;99.90;;;;;;5063272;28;20567;-79
2023/08/26 03:24:41;;;;;;;79.65;48.67;;;17.00;99.90;;;;;;5059358;28;20058;-79
2023/08/26 03:27:08;;;;;;;77.53;48.40;;;16.90;99.90;;;;;;5035520;28;20748;-79
2023/08/26 03:29:35;;;;;;;84.68;48.65;;;16.90;99.90;;;;;;5064808;28;20036;-80
2023/08/26 03:32:02;;;;;;;80.63;47.08;;;16.90;99.90;;;;;;5059859;28;20070;-79
2023/08/26 03:34:29;;;;;;;87.55;49.72;;;16.90;99.90;;;;;;5063129;28;20045;-79
2023/08/26 03:36:56;;;;;;;82.13;47.42;;;16.90;99.90;;;;;;5074733;28;20151;-79
2023/08/26 03:39:23;;;;;;;92.80;49.22;;;16.90;99.90;;;;;;5060097;28;20072;-78
2023/08/26 03:41:49;;;;;;;92.95;52.80;;;16.90;99.90;;;;;;5041837;28;20049;-79
2023/08/26 03:44:17;;;;;;;91.93;52.03;;;16.90;99.90;;;;;;5063757;28;20048;-80
2023/08/26 03:46:44;;;;;;;90.40;51.72;;;16.80;99.90;;;;;;5062427;28;20042;-80
2023/08/26 03:49:11;;;;;;;94.47;52.60;;;16.80;99.90;;;;;;5040509;28;20067;-79
2023/08/26 03:51:41;;;;;;;92.68;49.83;;;16.90;99.90;;;;;;5064704;28;20044;-79
2023/08/26 03:54:09;;;;;;;99.38;52.72;;;16.80;99.90;;;;;;5079761;28;20040;-79
2023/08/26 03:56:36;;;;;;;88.15;50.90;;;16.80;99.90;;;;;;5070478;28;20071;-79
2023/08/26 03:59:03;;;;;;;95.07;53.17;;;16.80;99.90;;;;;;5062115;28;20494;-78
2023/08/26 04:01:31;;;;;;;87.15;52.50;;;16.80;99.90;;;;;;5082627;28;20045;-80
2023/08/26 04:03:57;;;;;;;95.07;52.60;;;16.70;99.90;;;;;;5049920;28;20048;-78
2023/08/26 04:06:25;;;;;;;89.25;50.75;;;16.70;99.90;;;;;;5068032;28;20497;-79
2023/08/26 04:08:52;;;;;;;78.78;47.53;;;16.70;99.90;;;;;;5067333;28;20055;-78
2023/08/26 04:11:19;;;;;;;82.20;50.05;;;16.70;99.90;;;;;;5045893;28;20040;-78
2023/08/26 04:13:46;;;;;;;80.43;48.80;;;16.80;99.90;;;;;;5050962;28;20070;-79
2023/08/26 04:16:15;;;;;;;81.30;49.33;;;16.80;99.90;;;;;;5054769;28;20048;-79
2023/08/26 04:18:45;;;;;;;95.93;52.78;;;16.80;99.90;;;;;;5084878;28;20159;-78
2023/08/26 04:21:12;;;;;;;95.78;53.55;;;16.80;99.90;;;;;;5061923;28;20051;-78
2023/08/26 04:23:39;;;;;;;91.68;53.35;;;16.80;99.90;;;;;;5065416;28;20697;-78
2023/08/26 04:26:05;;;;;;;104.35;54.80;;;16.80;99.90;;;;;;5076454;28;20097;-78
2023/08/26 04:28:32;;;;;;;105.65;57.45;;;16.80;99.90;;;;;;5062130;28;20080;-78
2023/08/26 04:31:00;;;;;;;105.70;57.35;;;16.80;99.90;;;;;;5035563;28;20040;-79
2023/08/26 04:33:27;;;;;;;112.35;60.63;;;16.80;99.90;;;;;;5057676;28;20411;-79
2023/08/26 04:35:54;;;;;;;114.70;57.97;;;16.80;99.90;;;;;;5058675;28;20040;-78
2023/08/26 04:38:20;;;;;;;115.68;59.65;;;16.80;99.90;;;;;;5060596;28;20048;-78
2023/08/26 04:40:47;;;;;;;118.85;61.33;;;16.80;99.90;;;;;;5064001;28;20039;-79
2023/08/26 04:43:14;;;;;;;121.80;63.88;;;16.80;99.90;;;;;;5064032;28;20032;-80
2023/08/26 04:45:41;;;;;;;116.07;59.45;;;16.80;99.90;;;;;;5062340;28;20506;-80
2023/08/26 04:48:09;;;;;;;115.68;60.67;;;16.70;99.90;;;;;;5041337;28;20040;-79
2023/08/26 04:50:36;;;;;;;120.40;61.97;;;16.80;99.90;;;;;;5049285;28;20207;-78
2023/08/26 04:53:04;;;;;;;118.85;58.70;;;16.80;99.90;;;;;;5080036;28;20041;-78
2023/08/26 04:55:31;;;;;;;103.90;55.38;;;16.70;99.90;;;;;;5066164;28;20048;-79
2023/08/26 04:58:01;;;;;;;100.30;55.15;;;16.70;99.90;;;;;;5060360;28;20115;-78
2023/08/26 05:00:28;;;;;;;100.70;54.97;;;16.70;99.90;;;;;;5063464;28;20050;-78
2023/08/26 05:02:55;;;;;;;108.15;56.53;;;16.60;99.90;;;;;;5058946;28;20067;-79
2023/08/26 05:05:22;;;;;;;105.50;54.40;;;16.60;99.90;;;;;;5065561;28;20071;-78
2023/08/26 05:07:48;;;;;;;77.00;45.88;;;16.70;99.90;;;;;;5067187;28;20040;-79
2023/08/26 05:10:15;;;;;;;69.40;41.38;;;16.60;99.90;;;;;;5051111;28;20597;-79
2023/08/26 05:12:42;;;;;;;59.28;38.70;;;16.60;99.90;;;;;;5060540;28;20083;-78
2023/08/26 05:15:09;;;;;;;50.42;36.40;;;16.60;99.90;;;;;;5029429;28;20071;-78
2023/08/26 05:17:36;;;;;;;49.22;33.53;;;16.70;99.90;;;;;;5044361;28;20067;-77
2023/08/26 05:20:04;;;;;;;36.67;28.33;;;16.70;99.90;;;;;;5039567;28;20091;-78
2023/08/26 05:22:31;;;;;;;23.52;21.23;;;16.70;99.90;;;;;;5059849;28;20730;-78
2023/08/26 05:24:57;;;;;;;23.25;21.30;;;16.50;99.90;;;;;;5064291;28;20048;-79
2023/08/26 05:27:26;;;;;;;19.85;18.48;;;16.30;99.90;;;;;;5064163;28;20051;-78
2023/08/26 05:29:54;;;;;;;20.30;18.67;;;16.00;99.90;;;;;;5059584;28;20058;-80
2023/08/26 05:32:24;;;;;;;19.98;18.55;;;15.90;99.90;;;;;;5055841;28;20123;-78
2023/08/26 05:34:51;;;;;;;20.05;18.65;;;15.70;99.90;;;;;;5057533;28;20046;-78
2023/08/26 05:37:20;;;;;;;19.80;18.67;;;15.60;99.90;;;;;;5033201;28;20120;-78
2023/08/26 05:39:47;;;;;;;19.52;18.38;;;15.50;99.90;;;;;;5040106;28;20052;-79
2023/08/26 05:42:14;;;;;;;20.52;18.98;;;15.40;99.90;;;;;;5066678;28;20048;-77
2023/08/26 05:44:41;;;;;;;20.33;19.13;;;15.20;99.90;;;;;;5045655;28;20044;-77
2023/08/26 05:47:07;;;;;;;20.65;19.40;;;15.10;99.90;;;;;;5042024;28;20041;-78
2023/08/26 05:49:34;;;;;;;20.63;19.10;;;15.00;99.90;;;;;;5052886;28;20083;-78
2023/08/26 05:52:01;;;;;;;20.15;18.95;;;14.90;99.90;;;;;;5040731;28;20300;-78
2023/08/26 05:54:29;;;;;;;20.27;19.02;;;14.90;99.90;;;;;;5058004;28;20074;-78
2023/08/26 05:56:56;;;;;;;20.83;19.30;;;14.80;99.90;;;;;;5043272;28;20043;-77
2023/08/26 05:59:23;;;;;;;20.63;19.33;;;14.80;99.90;;;;;;5042894;28;20040;-78
2023/08/26 06:01:49;;;;;;;20.55;19.23;;;14.80;99.90;;;;;;5052419;28;20041;-78
2023/08/26 06:04:17;;;;;;;20.50;19.10;;;14.80;99.90;;;;;;5071526;28;20291;-79
2023/08/26 06:06:44;;;;;;;20.55;19.38;;;14.80;99.90;;;;;;5055905;28;20139;-78
2023/08/26 06:09:13;;;;;;;20.95;19.52;;;14.80;99.90;;;;;;5055294;28;20036;-79
2023/08/26 06:11:40;;;;;;;21.38;19.90;;;14.80;99.90;;;;;;5066894;28;20040;-77
2023/08/26 06:14:07;;;;;;;21.30;19.88;;;14.90;99.90;;;;;;5055553;28;20083;-78
2023/08/26 06:16:34;;;;;;;21.15;19.60;;;14.90;99.90;;;;;;5046973;28;20102;-78
2023/08/26 06:19:01;;;;;;;21.13;19.77;;;14.90;99.90;;;;;;5051960;28;20052;-79
2023/08/26 06:21:28;;;;;;;20.60;19.35;;;14.90;99.90;;;;;;5065189;28;20051;-78
2023/08/26 06:23:54;;;;;;;21.58;20.00;;;14.90;99.90;;;;;;5059646;28;20722;-78
2023/08/26 06:26:21;;;;;;;20.63;19.23;;;14.90;99.90;;;;;;5067684;28;20051;-79
2023/08/26 06:28:48;;;;;;;20.33;19.02;;;15.00;99.90;;;;;;5058910;28;20129;-78
2023/08/26 06:31:15;;;;;;;20.80;19.30;;;15.00;99.90;;;;;;5075762;28;20438;-79
2023/08/26 06:33:43;;;;;;;21.98;20.38;;;15.00;99.90;;;;;;5060206;28;20128;-78
2023/08/26 06:36:10;;;;;;;22.60;20.90;;;15.00;99.90;;;;;;5057085;28;20136;-78
2023/08/26 06:38:37;;;;;;;21.42;19.77;;;15.00;99.90;;;;;;5063651;28;20054;-78
2023/08/26 06:41:04;;;;;;;20.45;19.15;;;15.10;99.90;;;;;;5046676;28;20106;-77
2023/08/26 06:43:30;;;;;;;21.27;19.83;;;15.10;99.90;;;;;;5055531;28;20040;-78
2023/08/26 06:45:58;;;;;;;21.35;19.90;;;15.10;99.90;;;;;;5057054;28;20048;-78
2023/08/26 06:48:27;;;;;;;20.77;19.48;;;15.20;99.90;;;;;;5059278;28;20040;-79
2023/08/26 06:50:54;;;;;;;20.42;19.13;;;15.30;99.90;;;;;;5046519;28;20055;-79
2023/08/26 06:53:21;;;;;;;20.48;19.05;;;15.50;99.90;;;;;;5040136;28;20049;-78
2023/08/26 06:55:53;;;;;;;20.42;18.98;;;15.60;99.90;;;;;;5058893;28;20132;-79
2023/08/26 06:58:21;;;;;;;20.48;19.05;;;15.80;99.90;;;;;;5058136;28;20048;-78
2023/08/26 07:00:47;;;;;;;20.30;18.95;;;15.80;99.90;;;;;;5076529;28;20660;-79
2023/08/26 07:03:14;;;;;;;19.98;18.63;;;15.80;99.90;;;;;;5059903;28;20565;-78
2023/08/26 07:05:45;;;;;;;20.40;19.20;;;15.70;99.90;;;;;;5062622;28;20100;-78
2023/08/26 07:08:13;;;;;;;21.00;19.23;;;15.70;99.90;;;;;;5059596;28;20131;-78
2023/08/26 07:10:40;;;;;;;20.08;18.90;;;15.70;99.90;;;;;;5058944;28;20063;-77
2023/08/26 07:13:07;;;;;;;20.15;18.75;;;15.70;99.90;;;;;;5058279;28;20434;-78
2023/08/26 07:15:34;;;;;;;20.52;18.98;;;15.80;99.90;;;;;;5077157;28;20048;-77
2023/08/26 07:18:01;;;;;;;19.42;18.33;;;15.90;99.90;;;;;;5041565;28;20045;-78
2023/08/26 07:20:28;;;;;;;20.13;18.42;;;16.10;99.90;;;;;;5059178;28;20063;-79
2023/08/26 07:22:55;;;;;;;20.27;18.88;;;16.20;99.90;;;;;;5041946;28;20272;-80
2023/08/26 07:25:22;;;;;;;19.95;18.65;;;16.30;99.90;;;;;;5068124;28;20168;-76
2023/08/26 07:27:49;;;;;;;20.45;18.95;;;16.60;99.90;;;;;;5070512;28;20040;-77
2023/08/26 07:30:16;;;;;;;20.55;19.08;;;16.60;99.90;;;;;;5059151;28;20044;-79
2023/08/26 07:32:42;;;;;;;20.85;19.35;;;16.50;99.90;;;;;;5065359;28;20056;-80
2023/08/26 07:35:10;;;;;;;20.75;19.20;;;16.60;99.90;;;;;;5076818;28;20055;-81
2023/08/26 07:37:37;;;;;;;20.50;19.08;;;16.70;99.90;;;;;;5065556;28;20024;-79
2023/08/26 07:40:07;;;;;;;19.92;18.63;;;16.80;99.90;;;;;;5073147;28;20048;-77
2023/08/26 07:42:35;;;;;;;21.10;19.73;;;16.80;99.90;;;;;;5052887;28;20048;-77
2023/08/26 07:45:02;;;;;;;21.35;19.90;;;16.90;99.90;;;;;;5074183;28;20044;-78
2023/08/26 07:47:29;;;;;;;21.38;19.63;;;17.00;99.90;;;;;;5066917;28;20037;-77
2023/08/26 07:49:59;;;;;;;21.75;20.45;;;17.30;99.90;;;;;;5068800;28;20044;-78
2023/08/26 07:52:26;;;;;;;21.23;19.92;;;17.50;99.90;;;;;;5048938;28;20040;-77
2023/08/26 07:54:56;;;;;;;22.60;21.20;;;17.50;99.90;;;;;;5072767;28;20056;-79
2023/08/26 07:57:22;;;;;;;21.98;20.48;;;17.50;99.90;;;;;;5065076;28;20127;-78
2023/08/26 07:59:49;;;;;;;22.58;20.85;;;17.60;99.90;;;;;;5054208;28;20078;-78
2023/08/26 08:02:17;;;;;;;22.90;21.15;;;17.50;99.90;;;;;;5035713;28;20040;-78
2023/08/26 08:04:44;;;;;;;22.35;20.98;;;17.40;99.90;;;;;;5064219;28;20547;-78
2023/08/26 08:07:11;;;;;;;22.88;21.38;;;17.50;99.90;;;;;;5059405;28;20062;-80
2023/08/26 08:09:38;;;;;;;22.77;21.38;;;17.40;99.90;;;;;;5079603;28;20199;-80
2023/08/26 08:12:06;;;;;;;22.88;21.33;;;17.30;99.90;;;;;;5064899;28;20086;-79
2023/08/26 08:14:32;;;;;;;22.83;21.33;;;17.60;99.90;;;;;;5054753;28;20465;-81
2023/08/26 08:16:59;;;;;;;23.17;21.65;;;17.50;99.90;;;;;;5056939;28;20041;-80
2023/08/26 08:19:26;;;;;;;23.52;21.98;;;17.40;99.90;;;;;;5085177;28;20074;-81
2023/08/26 08:21:53;;;;;;;21.80;20.20;;;17.30;99.90;;;;;;5050983;28;20044;-80
2023/08/26 08:24:19;;;;;;;23.27;21.92;;;17.40;99.90;;;;;;5084500;28;20036;-80
2023/08/26 08:26:46;;;;;;;22.98;21.45;;;17.60;99.90;;;;;;5042410;28;20037;-80
2023/08/26 08:29:13;;;;;;;22.73;20.75;;;17.80;99.90;;;;;;5059307;28;20096;-79
2023/08/26 08:31:39;;;;;;;21.83;20.42;;;17.80;99.90;;;;;;5064918;28;20036;-80
2023/08/26 08:34:07;;;;;;;21.70;20.40;;;18.10;99.90;;;;;;5065870;28;20723;-79
2023/08/26 08:36:33;;;;;;;22.73;21.20;;;18.40;99.90;;;;;;5064424;28;20051;-79
2023/08/26 08:39:00;;;;;;;22.65;21.20;;;18.60;99.90;;;;;;5072612;28;20070;-79
2023/08/26 08:41:30;;;;;;;22.15;20.67;;;18.90;99.90;;;;;;5061438;28;20139;-79
2023/08/26 08:44:02;;;;;;;23.60;21.38;;;19.30;99.90;;;;;;5081879;28;20391;-79
2023/08/26 08:46:29;;;;;;;23.95;22.25;;;19.30;99.90;;;;;;5044778;28;20043;-79
2023/08/26 08:48:57;;;;;;;22.85;21.35;;;19.20;99.90;;;;;;5075183;28;20067;-81
2023/08/26 08:51:25;;;;;;;22.48;21.27;;;18.90;99.90;;;;;;5074258;28;20036;-79
2023/08/26 08:53:52;;;;;;;22.88;21.35;;;18.90;99.90;;;;;;5088166;28;20347;-78
2023/08/26 08:56:21;;;;;;;23.08;21.52;;;18.80;99.90;;;;;;5060664;28;20048;-78
2023/08/26 08:58:49;;;;;;;23.20;21.48;;;18.80;99.90;;;;;;5061583;28;20142;-79
2023/08/26 09:01:19;;;;;;;23.20;21.73;;;18.80;99.90;;;;;;5074372;28;20052;-79
2023/08/26 09:03:47;;;;;;;22.55;20.80;;;19.00;99.90;;;;;;5078427;28;20044;-80
2023/08/26 09:06:14;;;;;;;20.88;19.48;;;18.80;99.90;;;;;;5059303;28;20048;-79
2023/08/26 09:08:44;;;;;;;22.83;21.13;;;18.70;99.90;;;;;;5058753;28;20087;-79
2023/08/26 09:11:12;;;;;;;24.45;23.00;;;18.50;99.90;;;;;;5058487;28;20040;-79
2023/08/26 09:13:39;;;;;;;24.02;22.35;;;18.50;99.90;;;;;;5070956;28;20052;-79
2023/08/26 09:16:06;;;;;;;23.55;22.05;;;18.90;99.90;;;;;;5052930;28;20048;-78
2023/08/26 09:18:39;;;;;;;22.30;20.70;;;18.80;99.90;;;;;;5058994;28;20056;-79
2023/08/26 09:21:07;;;;;;;23.73;21.70;;;18.70;99.90;;;;;;5075496;28;20146;-78
2023/08/26 09:23:42;;;;;;;22.73;20.92;;;18.70;99.90;;;;;;5057114;28;20162;-78
2023/08/26 09:26:09;;;;;;;;;;;19.00;99.90;;;;;;5060820;28;20510;-80
2023/08/26 09:28:46;;;;;;;21.58;20.08;;;19.30;99.90;;;;;;5058895;28;19930;-79
2023/08/26 09:31:14;;;;;;;22.85;21.35;;;19.30;99.90;;;;;;5073133;28;20036;-79
2023/08/26 09:33:41;;;;;;;23.23;21.50;;;19.00;99.90;;;;;;5071966;28;20045;-78
2023/08/26 09:36:09;;;;;;;23.33;21.80;;;18.50;99.90;;;;;;5076615;28;20044;-79
2023/08/26 09:38:44;;;;;;;22.52;21.13;;;18.20;99.90;;;;;;5052594;28;23399;-79
2023/08/26 09:41:11;;;;;;;25.05;23.30;;;18.10;99.90;;;;;;5055785;28;20044;-79
2023/08/26 09:43:43;;;;;;;22.42;21.13;;;18.40;99.90;;;;;;5055125;28;20540;-78
2023/08/26 09:46:20;;;;;;;21.58;20.27;;;18.70;99.90;;;;;;5041105;28;20139;-77
2023/08/26 09:48:48;;;;;;;22.92;21.15;;;18.70;99.90;;;;;;5052909;28;20100;-82
2023/08/26 09:51:29;;;;;;;21.63;20.35;;;18.60;99.90;;;;;;5032983;28;20044;-80
2023/08/26 09:53:58;;;;;;;22.90;21.48;;;18.50;99.90;;;;;;5037507;28;20106;-79
2023/08/26 09:56:26;;;;;;;22.58;21.02;;;18.40;99.90;;;;;;5049499;28;20111;-80
2023/08/26 09:58:54;;;;;;;23.13;21.65;;;18.10;99.90;;;;;;5031919;28;20057;-78
2023/08/26 10:01:22;;;;;;;23.20;21.55;;;18.00;99.90;;;;;;5048529;28;20581;-81
2023/08/26 10:03:53;;;;;;;26.40;24.90;;;18.00;99.90;;;;;;5060160;28;20074;-79
2023/08/26 10:06:23;;;;;;;25.45;23.95;;;18.30;99.90;;;;;;5051899;28;20063;-77
2023/08/26 10:08:58;;;;;;;27.17;24.88;;;18.80;99.90;;;;;;5067375;28;20101;-78
2023/08/26 10:11:29;;;;;;;26.33;24.63;;;19.20;99.90;;;;;;5060066;28;20085;-77
2023/08/26 10:13:59;;;;;;;25.45;23.83;;;19.60;99.90;;;;;;5037825;28;20054;-76
2023/08/26 10:16:28;;;;;;;26.27;24.50;;;19.90;99.90;;;;;;5039492;28;20068;-76
2023/08/26 10:19:03;;;;;;;27.55;25.50;;;20.00;99.90;;;;;;5043401;28;20044;-77
2023/08/26 10:21:31;;;;;;;27.02;25.38;;;19.90;99.90;;;;;;5027702;28;20048;-76
2023/08/26 10:23:59;;;;;;;28.23;26.38;;;19.90;99.90;;;;;;5030387;28;20308;-76
2023/08/26 10:26:27;;;;;;;27.92;26.05;;;20.20;99.90;;;;;;5027265;28;20048;-76
2023/08/26 10:28:55;;;;;;;22.48;20.98;;;20.70;99.90;;;;;;5049283;28;20591;-77
2023/08/26 10:31:43;;;;;;;22.63;21.33;;;20.60;99.90;;;;;;5067130;28;20087;-77
2023/08/26 10:34:09;;;;;;;23.08;21.58;;;20.40;99.90;;;;;;5072233;28;20070;-79
2023/08/26 10:36:41;;;;;;;23.95;22.55;;;20.30;99.90;;;;;;5041371;28;20163;-77
2023/08/26 10:39:15;;;;;;;22.90;21.42;;;20.00;99.90;;;;;;5037575;28;20052;-78
2023/08/26 10:42:14;;;;;;;23.00;21.60;;;19.60;99.90;;;;;;5046048;28;20048;-78
2023/08/26 10:44:43;;;;;;;22.30;20.77;;;19.40;99.90;;;;;;5065015;28;20044;-77
2023/08/26 10:47:11;;;;;;;26.83;25.05;;;19.20;99.90;;;;;;5044245;28;20431;-77
2023/08/26 10:49:38;;;;;;;25.35;23.45;;;19.20;99.90;;;;;;5021821;28;21328;-77
2023/08/26 10:52:15;;;;;;;26.08;24.48;;;19.60;99.90;;;;;;5063031;28;20040;-77
2023/08/26 10:54:43;;;;;;;25.88;24.23;;;19.60;99.90;;;;;;5065095;28;20044;-76
2023/08/26 10:57:13;;;;;;;26.75;24.98;;;19.80;99.90;;;;;;5060092;28;20654;-77
2023/08/26 10:59:42;;;;;;;26.70;25.10;;;19.90;99.90;;;;;;5042661;28;20598;-76
2023/08/26 11:02:11;;;;;;;25.70;24.00;;;20.30;99.90;;;;;;5062660;28;20106;-77
2023/08/26 11:04:47;;;;;;;24.17;22.67;;;20.30;99.90;;;;;;5061646;28;20612;-77
2023/08/26 11:07:18;;;;;;;25.27;23.77;;;20.10;99.90;;;;;;5038515;28;20069;-77
2023/08/26 11:09:45;;;;;;;25.48;23.55;;;20.50;99.90;;;;;;5035869;28;20038;-76
2023/08/26 11:12:45;;;;;;;25.60;24.00;;;21.10;99.90;;;;;;5062935;28;20032;-75
2023/08/26 11:15:12;;;;;;;23.30;21.90;;;21.30;99.90;;;;;;5033104;28;20105;-77
2023/08/26 11:17:40;;;;;;;25.63;24.05;;;21.10;99.90;;;;;;5041019;28;20032;-77
2023/08/26 11:20:18;;;;;;;26.25;24.13;;;20.80;99.90;;;;;;5070161;28;20521;-77
2023/08/26 11:22:45;;;;;;;26.70;25.20;;;21.10;99.90;;;;;;5049202;28;20050;-76
2023/08/26 11:25:16;;;;;;;23.65;21.75;;;21.30;99.90;;;;;;5070208;28;20055;-76
2023/08/26 11:27:44;;;;;;;23.15;21.83;;;21.70;99.90;;;;;;5044576;28;20809;-77
2023/08/26 11:30:12;;;;;;;28.33;26.60;;;21.50;99.90;;;;;;5050442;28;20070;-76
2023/08/26 11:32:40;;;;;;;23.95;22.25;;;21.30;99.90;;;;;;5065207;28;20075;-79
2023/08/26 11:35:09;;;;;;;27.13;25.48;;;21.30;99.90;;;;;;5051332;28;21583;-76
2023/08/26 11:37:40;;;;;;;23.38;21.98;;;20.50;99.90;;;;;;5045705;28;20048;-76
2023/08/26 11:40:11;;;;;;;24.77;23.17;;;20.60;99.90;;;;;;5066654;28;20044;-77
2023/08/26 11:42:38;;;;;;;27.52;25.58;;;20.70;99.90;;;;;;5033266;28;20051;-76
2023/08/26 11:45:09;;;;;;;27.27;25.63;;;20.70;99.90;;;;;;5061733;28;20055;-77
2023/08/26 11:47:37;;;;;;;26.08;24.60;;;20.90;99.90;;;;;;5049787;28;20733;-76
2023/08/26 11:50:04;;;;;;;23.48;22.08;;;21.30;99.90;;;;;;5031289;28;20059;-77
2023/08/26 11:52:36;;;;;;;28.17;26.52;;;21.50;99.90;;;;;;5027312;28;20113;-76
2023/08/26 11:55:04;;;;;;;28.20;26.40;;;21.40;99.90;;;;;;5048536;28;20048;-76
2023/08/26 11:57:36;;;;;;;27.35;25.60;;;21.30;99.90;;;;;;5060969;28;20123;-76
2023/08/26 12:00:12;;;;;;;27.98;25.95;;;21.40;99.90;;;;;;5059838;28;20667;-76
2023/08/26 12:02:44;;;;;;;27.20;25.60;;;21.30;99.90;;;;;;5049571;28;20995;-76
2023/08/26 12:05:11;;;;;;;26.77;25.17;;;21.40;99.90;;;;;;5051857;28;20055;-76
2023/08/26 12:07:44;;;;;;;26.55;24.75;;;21.40;99.90;;;;;;5061789;28;20028;-78
2023/08/26 12:10:12;;;;;;;27.98;25.98;;;21.30;99.90;;;;;;5043003;28;20040;-76
2023/08/26 12:12:40;;;;;;;27.65;26.02;;;21.40;99.90;;;;;;5062748;28;20055;-75
2023/08/26 12:15:09;;;;;;;25.35;23.67;;;21.70;99.90;;;;;;5069560;28;20071;-76
2023/08/26 12:17:50;;;;;;;28.52;26.73;;;21.70;99.90;;;;;;5027613;28;20048;-76
2023/08/26 12:20:25;;;;;;;28.00;26.40;;;21.90;99.90;;;;;;5067468;28;20093;-76
2023/08/26 12:22:54;;;;;;;27.77;26.08;;;21.90;99.90;;;;;;5064655;28;20040;-76
2023/08/26 12:25:35;;;;;;;26.92;25.13;;;21.70;99.90;;;;;;5062255;28;20043;-76
2023/08/26 12:28:12;;;;;;;25.48;23.85;;;21.90;99.90;;;;;;5059682;28;20222;-76
2023/08/26 12:30:41;;;;;;;28.33;26.73;;;21.70;99.90;;;;;;5046783;28;20043;-77
2023/08/26 12:33:08;;;;;;;28.90;27.10;;;21.60;99.90;;;;;;5037464;28;20062;-76